createdAt,value
2019-04-14T00:01:06.719Z,77.69
2019-04-14T00:02:47.686Z,77.43
2019-04-14T00:04:29.265Z,78.06
2019-04-14T00:06:09.156Z,78.13
2019-04-14T00:07:49.454Z,77.98
2019-04-14T00:09:29.416Z,78.55
2019-04-14T00:11:08.735Z,79.12
2019-04-14T00:12:51.293Z,78.50
2019-04-14T00:14:33.549Z,78.27
2019-04-14T00:16:14.146Z,77.38
2019-04-14T00:17:54.393Z,77.42
2019-04-14T00:19:34.886Z,77.52
2019-04-14T00:21:13.388Z,78.00
2019-04-14T00:22:53.421Z,77.94
2019-04-14T00:24:33.555Z,78.18
2019-04-14T00:26:27.448Z,78.03
2019-04-14T00:28:07.355Z,78.98
2019-04-14T00:29:47.933Z,78.74
2019-04-14T00:31:30.598Z,78.80
2019-04-14T00:33:12.767Z,79.08
2019-04-14T00:34:59.413Z,78.90
2019-04-14T00:36:56.603Z,78.56
2019-04-14T00:38:39.067Z,78.84
2019-04-14T00:40:21.804Z,78.82
2019-04-14T00:42:25.616Z,78.78
2019-04-14T00:44:14.647Z,79.17
2019-04-14T00:46:00.564Z,79.30
2019-04-14T00:47:59.496Z,79.29
2019-04-14T00:49:31.258Z,79.09
2019-04-14T00:51:11.283Z,79.18
2019-04-14T00:52:50.199Z,79.35
2019-04-14T00:54:30.429Z,79.66
2019-04-14T00:56:10.490Z,79.86
2019-04-14T00:57:50.900Z,80.25
2019-04-14T00:59:31.202Z,80.19
2019-04-14T01:01:11.230Z,79.91
2019-04-14T01:02:51.534Z,79.57
2019-04-14T01:04:31.615Z,80.08
2019-04-14T01:06:12.138Z,79.53
2019-04-14T01:07:52.342Z,79.21
2019-04-14T01:09:32.693Z,79.52
2019-04-14T01:11:12.232Z,79.33
2019-04-14T01:12:51.769Z,79.09
2019-04-14T01:14:32.013Z,79.42
2019-04-14T01:16:17.016Z,79.33
2019-04-14T01:17:52.891Z,79.22
2019-04-14T01:19:32.994Z,78.93
2019-04-14T01:21:17.447Z,79.30
2019-04-14T01:22:57.467Z,79.25
2019-04-14T01:24:40.314Z,78.75
2019-04-14T01:26:20.395Z,79.27
2019-04-14T01:28:00.295Z,79.03
2019-04-14T01:29:40.516Z,79.37
2019-04-14T01:31:20.664Z,78.43
2019-04-14T01:33:01.108Z,78.48
2019-04-14T01:34:41.176Z,78.89
2019-04-14T01:36:21.251Z,79.17
2019-04-14T01:38:03.804Z,78.78
2019-04-14T01:39:44.147Z,78.83
2019-04-14T01:41:24.423Z,79.30
2019-04-14T01:43:03.863Z,79.37
2019-04-14T01:44:43.850Z,78.67
2019-04-14T01:46:30.952Z,79.26
2019-04-14T01:48:08.467Z,79.40
2019-04-14T01:49:48.684Z,78.15
2019-04-14T01:51:30.912Z,78.07
2019-04-14T01:53:31.914Z,78.50
2019-04-14T01:55:28.819Z,78.24
2019-04-14T01:57:24.550Z,78.39
2019-04-14T01:59:04.528Z,78.39
2019-04-14T02:00:44.792Z,78.06
2019-04-14T02:02:25.438Z,77.92
2019-04-14T02:04:04.985Z,78.48
2019-04-14T02:05:43.248Z,78.41
2019-04-14T02:07:23.354Z,79.14
2019-04-14T02:09:03.276Z,79.09
2019-04-14T02:10:43.735Z,79.21
2019-04-14T02:12:23.507Z,78.93
2019-04-14T02:14:02.082Z,78.46
2019-04-14T02:15:40.455Z,78.60
2019-04-14T02:17:20.300Z,78.91
2019-04-14T02:18:58.611Z,78.90
2019-04-14T02:20:38.279Z,78.76
2019-04-14T02:22:18.134Z,79.06
2019-04-14T02:23:56.317Z,78.79
2019-04-14T02:25:34.420Z,78.33
2019-04-14T02:27:14.859Z,79.53
2019-04-14T02:28:55.006Z,79.86
2019-04-14T02:30:48.460Z,80.18
2019-04-14T02:32:49.830Z,79.83
2019-04-14T02:34:34.546Z,80.26
2019-04-14T02:36:14.201Z,80.06
2019-04-14T02:37:57.103Z,80.26
2019-04-14T02:41:21.565Z,79.54
2019-04-14T02:42:59.210Z,79.28
2019-04-14T02:44:48.698Z,80.16
2019-04-14T02:46:26.419Z,80.79
2019-04-14T02:49:51.426Z,80.61
2019-04-14T02:53:10.975Z,79.75
2019-04-14T02:56:27.951Z,80.44
2019-04-14T02:58:10.245Z,81.25
2019-04-14T02:59:56.251Z,81.33
2019-04-14T03:01:54.830Z,82.05
2019-04-14T03:03:16.093Z,81.43
2019-04-14T03:05:18.628Z,81.60
2019-04-14T03:06:33.355Z,81.94
2019-04-14T03:08:18.777Z,81.46
2019-04-14T03:10:16.471Z,82.30
2019-04-14T03:11:40.274Z,81.80
2019-04-14T03:16:51.975Z,81.60
2019-04-14T03:20:47.585Z,81.42
2019-04-14T03:24:15.834Z,81.44
2019-04-14T03:25:59.408Z,81.73
2019-04-14T03:29:40.784Z,82.23
2019-04-14T03:33:18.505Z,81.66
2019-04-14T03:34:54.650Z,81.90
2019-04-14T03:36:58.300Z,82.41
2019-04-14T03:38:15.265Z,82.68
2019-04-14T03:39:46.615Z,82.42
2019-04-14T03:41:31.555Z,81.94
2019-04-14T03:43:09.924Z,81.62
2019-04-14T03:44:50.376Z,80.59
2019-04-14T03:49:54.334Z,81.42
2019-04-14T03:51:40.439Z,81.32
2019-04-14T03:53:26.835Z,81.74
2019-04-14T03:54:44.099Z,81.25
2019-04-14T03:56:14.382Z,81.66
2019-04-14T03:57:54.470Z,81.89
2019-04-14T03:59:34.596Z,81.79
2019-04-14T04:01:13.023Z,82.49
2019-04-14T04:02:53.304Z,81.86
2019-04-14T04:04:33.898Z,81.57
2019-04-14T04:06:13.672Z,81.85
2019-04-14T04:07:53.898Z,81.75
2019-04-14T04:09:45.355Z,81.75
2019-04-14T04:11:25.851Z,81.95
2019-04-14T04:13:04.393Z,81.56
2019-04-14T04:14:44.247Z,81.88
2019-04-14T04:16:26.902Z,81.62
2019-04-14T04:18:13.503Z,82.06
2019-04-14T04:19:55.617Z,82.16
2019-04-14T04:21:49.488Z,82.64
2019-04-14T04:23:51.130Z,82.06
2019-04-14T04:25:33.299Z,82.15
2019-04-14T04:27:29.283Z,82.51
2019-04-14T04:29:14.209Z,82.13
2019-04-14T04:30:53.753Z,82.01
2019-04-14T04:32:51.630Z,81.87
2019-04-14T04:34:49.085Z,82.01
2019-04-14T04:36:31.279Z,82.20
2019-04-14T04:38:18.202Z,82.81
2019-04-14T04:40:00.668Z,83.53
2019-04-14T04:41:40.752Z,83.30
2019-04-14T04:43:21.162Z,83.28
2019-04-14T04:45:01.683Z,83.25
2019-04-14T04:46:41.922Z,84.01
2019-04-14T04:48:24.178Z,83.75
2019-04-14T04:50:04.356Z,82.79
2019-04-14T04:51:42.826Z,82.27
2019-04-14T04:53:22.363Z,82.81
2019-04-14T04:55:00.920Z,82.83
2019-04-14T04:56:40.523Z,82.88
2019-04-14T04:58:19.526Z,82.60
2019-04-14T05:00:00.502Z,82.81
2019-04-14T05:01:38.732Z,82.22
2019-04-14T05:03:18.917Z,83.19
2019-04-14T05:05:01.314Z,82.20
2019-04-14T05:07:03.564Z,81.26
2019-04-14T05:08:52.242Z,81.96
2019-04-14T05:10:34.994Z,82.86
2019-04-14T05:12:26.286Z,83.58
2019-04-14T05:14:11.495Z,83.62
2019-04-14T05:15:53.184Z,83.37
2019-04-14T05:17:38.893Z,83.28
2019-04-14T05:19:25.729Z,83.72
2019-04-14T05:46:06.051Z,82.80
2019-04-14T05:47:52.163Z,82.50
2019-04-14T05:49:44.294Z,81.99
2019-04-14T05:51:22.140Z,82.19
2019-04-14T05:53:04.351Z,81.29
2019-04-14T05:54:51.974Z,80.90
2019-04-14T05:56:45.268Z,81.60
2019-04-14T05:58:34.376Z,81.74
2019-04-14T06:00:14.584Z,81.21
2019-04-14T06:01:55.532Z,80.92
2019-04-14T06:03:36.460Z,81.28
2019-04-14T06:05:17.239Z,80.93
2019-04-14T06:06:59.943Z,81.52
2019-04-14T06:08:44.300Z,80.59
2019-04-14T06:10:34.373Z,80.48
2019-04-14T06:12:17.656Z,80.34
2019-04-14T06:14:00.777Z,81.15
2019-04-14T06:15:40.098Z,81.37
2019-04-14T06:17:20.707Z,80.63
2019-04-14T06:19:00.141Z,80.92
2019-04-14T06:20:40.000Z,80.70
2019-04-14T06:22:21.839Z,79.62
2019-04-14T06:24:00.360Z,80.07
2019-04-14T06:25:40.021Z,80.81
2019-04-14T06:27:19.788Z,80.82
2019-04-14T06:29:00.216Z,79.61
2019-04-14T06:30:41.255Z,80.04
2019-04-14T06:32:22.201Z,78.93
2019-04-14T06:34:03.500Z,79.06
2019-04-14T06:35:44.404Z,80.80
2019-04-14T06:37:23.607Z,80.68
2019-04-14T06:39:22.683Z,80.98
2019-04-14T06:41:03.428Z,80.98
2019-04-14T06:42:42.048Z,80.80
2019-04-14T06:44:24.894Z,80.47
2019-04-14T06:46:04.647Z,80.48
2019-04-14T06:47:45.491Z,80.11
2019-04-14T06:49:23.795Z,80.69
2019-04-14T06:51:02.663Z,79.70
2019-04-14T06:52:42.488Z,79.32
2019-04-14T06:54:21.081Z,79.61
2019-04-14T06:55:58.967Z,79.39
2019-04-14T06:57:38.931Z,78.27
2019-04-14T06:59:22.422Z,77.85
2019-04-14T07:01:03.533Z,77.84
2019-04-14T07:02:41.773Z,77.45
2019-04-14T07:04:20.182Z,76.50
2019-04-14T07:06:00.330Z,76.75
2019-04-14T07:07:40.039Z,76.91
2019-04-14T07:09:19.261Z,77.17
2019-04-14T07:11:00.668Z,76.70
2019-04-14T07:12:42.907Z,75.96
2019-04-14T07:14:22.214Z,76.58
2019-04-14T07:16:00.543Z,76.01
2019-04-14T07:17:39.932Z,76.47
2019-04-14T07:19:19.343Z,76.52
2019-04-14T07:20:57.579Z,76.34
2019-04-14T07:22:36.475Z,75.62
2019-04-14T07:24:14.214Z,73.97
2019-04-14T07:25:53.048Z,73.29
2019-04-14T07:27:31.889Z,74.17
2019-04-14T07:29:14.793Z,74.34
2019-04-14T07:30:56.337Z,73.89
2019-04-14T07:32:57.101Z,73.12
2019-04-14T07:34:49.599Z,74.62
2019-04-14T07:36:52.208Z,75.34
2019-04-14T07:38:38.775Z,75.33
2019-04-14T07:40:37.025Z,74.12
2019-04-14T07:42:23.762Z,75.03
2019-04-14T07:44:21.479Z,74.17
2019-04-14T07:46:01.583Z,73.87
2019-04-14T07:47:46.776Z,73.04
2019-04-14T07:51:46.713Z,71.93
2019-04-14T07:53:42.287Z,72.42
2019-04-14T07:55:29.075Z,72.34
2019-04-14T07:57:10.883Z,73.25
2019-04-14T07:59:09.195Z,73.71
2019-04-14T08:00:51.241Z,74.98
2019-04-14T08:02:41.799Z,74.61
2019-04-14T08:04:22.396Z,73.81
2019-04-14T08:06:02.509Z,74.06
2019-04-14T08:07:43.868Z,73.32
2019-04-14T08:09:21.557Z,73.07
2019-04-14T08:11:01.557Z,73.82
2019-04-14T08:12:44.640Z,73.37
2019-04-14T08:14:24.280Z,72.80
2019-04-14T08:16:04.289Z,71.74
2019-04-14T08:17:46.919Z,72.08
2019-04-14T08:19:24.780Z,73.36
2019-04-14T08:21:05.118Z,73.72
2019-04-14T08:22:44.954Z,74.30
2019-04-14T08:24:26.786Z,74.35
2019-04-14T08:26:06.253Z,74.82
2019-04-14T08:27:46.481Z,74.35
2019-04-14T08:29:25.468Z,74.49
2019-04-14T08:31:05.885Z,73.63
2019-04-14T08:32:44.390Z,74.10
2019-04-14T08:34:25.159Z,73.90
2019-04-14T08:36:04.669Z,73.35
2019-04-14T08:37:49.188Z,74.20
2019-04-14T08:39:28.795Z,74.96
2019-04-14T08:41:12.492Z,75.48
2019-04-14T08:42:58.178Z,75.62
2019-04-14T08:44:49.436Z,75.42
2019-04-14T08:46:50.289Z,74.16
2019-04-14T08:48:36.997Z,75.22
2019-04-14T08:50:25.839Z,73.46
2019-04-14T08:52:11.869Z,74.74
2019-04-14T08:53:52.894Z,73.18
2019-04-14T08:55:56.410Z,73.71
2019-04-14T08:57:42.644Z,73.49
2019-04-14T08:59:41.992Z,74.44
2019-04-14T09:01:24.097Z,74.18
2019-04-14T09:03:29.648Z,74.79
2019-04-14T09:05:13.175Z,75.07
2019-04-14T09:06:58.159Z,74.84
2019-04-14T09:08:41.079Z,74.62
2019-04-14T09:10:24.469Z,75.53
2019-04-14T09:12:14.782Z,75.01
2019-04-14T09:13:48.789Z,74.82
2019-04-14T09:15:33.207Z,75.34
2019-04-14T09:17:13.694Z,75.06
2019-04-14T09:18:53.757Z,74.71
2019-04-14T09:20:33.307Z,75.27
2019-04-14T09:22:16.207Z,74.52
2019-04-14T09:23:56.742Z,73.19
2019-04-14T09:25:41.125Z,72.82
2019-04-14T09:27:19.455Z,72.86
2019-04-14T09:28:57.762Z,72.40
2019-04-14T09:30:38.145Z,71.51
2019-04-14T09:32:18.387Z,71.27
2019-04-14T09:33:57.781Z,71.91
2019-04-14T09:35:37.260Z,72.24
2019-04-14T09:37:15.525Z,73.05
2019-04-14T09:38:58.891Z,73.75
2019-04-14T09:40:37.789Z,72.64
2019-04-14T09:42:17.411Z,73.25
2019-04-14T09:43:58.570Z,72.79
2019-04-14T09:45:39.654Z,71.61
2019-04-14T09:47:17.499Z,72.05
2019-04-14T09:48:57.315Z,71.99
2019-04-14T09:50:36.036Z,71.49
2019-04-14T09:52:13.690Z,70.22
2019-04-14T09:53:58.399Z,70.23
2019-04-14T09:55:41.081Z,71.28
2019-04-14T09:57:24.080Z,71.69
2019-04-14T09:59:06.491Z,72.07
2019-04-14T10:02:50.832Z,72.49
2019-04-14T10:04:48.686Z,73.14
2019-04-14T10:06:26.395Z,73.07
2019-04-14T10:08:06.374Z,71.89
2019-04-14T10:09:44.808Z,72.36
2019-04-14T10:11:22.337Z,72.15
2019-04-14T10:12:59.878Z,71.23
2019-04-14T10:14:39.028Z,71.84
2019-04-14T10:16:18.736Z,70.74
2019-04-14T10:17:57.489Z,71.01
2019-04-14T10:19:35.396Z,71.29
2019-04-14T10:21:17.545Z,69.99
2019-04-14T10:22:54.949Z,70.26
2019-04-14T10:24:33.415Z,70.13
2019-04-14T10:26:11.373Z,70.04
2019-04-14T10:27:49.594Z,69.16
2019-04-14T10:29:27.713Z,70.45
2019-04-14T10:31:06.597Z,69.82
2019-04-14T10:32:44.481Z,68.70
2019-04-14T10:34:22.937Z,70.20
2019-04-14T10:36:00.481Z,69.55
2019-04-14T10:38:30.873Z,69.53
2019-04-14T10:39:45.095Z,69.54
2019-04-14T10:41:23.532Z,71.37
2019-04-14T10:44:47.602Z,70.32
2019-04-14T10:45:10.932Z,70.98
2019-04-14T10:46:33.761Z,69.58
2019-04-14T10:48:18.200Z,70.22
2019-04-14T10:49:57.663Z,70.92
2019-04-14T10:51:39.638Z,70.58
2019-04-14T10:53:22.015Z,70.63
2019-04-14T10:55:19.067Z,71.01
2019-04-14T10:57:05.112Z,70.49
2019-04-14T10:58:43.802Z,70.69
2019-04-14T11:00:37.132Z,71.66
2019-04-14T11:02:37.302Z,71.56
2019-04-14T11:04:17.905Z,71.07
2019-04-14T11:06:11.550Z,71.12
2019-04-14T11:07:59.728Z,70.52
2019-04-14T11:09:37.211Z,70.58
2019-04-14T11:11:14.931Z,71.19
2019-04-14T11:12:52.257Z,71.53
2019-04-14T11:14:30.641Z,71.50
2019-04-14T11:16:09.387Z,71.75
2019-04-14T11:17:47.308Z,71.37
2019-04-14T11:19:24.998Z,70.99
2019-04-14T11:21:02.315Z,71.09
2019-04-14T11:22:40.298Z,70.70
2019-04-14T11:24:18.205Z,70.26
2019-04-14T11:25:55.817Z,70.26
2019-04-14T11:27:34.124Z,70.14
2019-04-14T11:29:11.980Z,69.41
2019-04-14T11:30:49.768Z,70.01
2019-04-14T11:32:28.915Z,70.05
2019-04-14T11:34:06.486Z,68.90
2019-04-14T11:35:46.904Z,68.72
2019-04-14T11:39:24.935Z,70.53
2019-04-14T11:41:05.951Z,70.88
2019-04-14T11:42:52.304Z,71.16
2019-04-14T11:44:22.738Z,69.89
2019-04-14T11:46:03.907Z,70.42
2019-04-14T11:47:43.819Z,69.25
2019-04-14T11:49:25.225Z,68.80
2019-04-14T11:51:06.544Z,68.60
2019-04-14T11:52:44.548Z,68.69
2019-04-14T11:54:22.096Z,69.83
2019-04-14T11:56:00.437Z,70.23
2019-04-14T11:57:38.237Z,70.67
2019-04-14T17:48:38.695Z,77.84
2019-04-14T17:50:21.807Z,77.69
2019-04-14T17:52:17.742Z,78.14
2019-04-14T17:54:03.174Z,78.33
2019-04-14T17:55:51.794Z,77.66
2019-04-14T17:57:39.064Z,77.72
2019-04-14T17:59:19.504Z,78.68
2019-04-14T18:01:15.656Z,78.69
2019-04-14T18:03:03.630Z,78.61
2019-04-14T18:05:01.731Z,78.98
2019-04-14T18:06:46.739Z,78.93
2019-04-14T18:08:41.749Z,79.04
2019-04-14T18:10:29.555Z,79.08
2019-04-14T18:12:14.676Z,79.23
2019-04-14T18:14:16.295Z,79.38
2019-04-14T18:15:58.779Z,79.67
2019-04-14T18:17:43.386Z,79.10
2019-04-14T18:19:30.562Z,78.56
2019-04-14T18:21:10.968Z,78.30
2019-04-14T18:22:50.346Z,78.47
2019-04-14T18:24:28.157Z,78.98
2019-04-14T18:26:07.473Z,78.89
2019-04-14T18:28:02.433Z,79.44
2019-04-14T18:29:42.008Z,79.52
2019-04-14T18:31:22.904Z,79.84
2019-04-14T18:33:03.749Z,79.99
2019-04-14T18:34:51.222Z,79.59
2019-04-14T18:36:50.429Z,79.78
2019-04-14T18:38:30.698Z,79.90
2019-04-14T18:40:12.588Z,80.30
2019-04-14T18:42:15.694Z,80.23
2019-04-14T18:44:14.464Z,80.63
2019-04-14T18:45:56.462Z,80.74
2019-04-14T18:47:56.358Z,81.05
2019-04-14T18:49:52.704Z,80.69
2019-04-14T18:51:39.901Z,80.60
2019-04-14T18:53:34.211Z,80.78
2019-04-14T18:55:33.070Z,80.96
2019-04-14T18:57:17.794Z,80.77
2019-04-14T18:59:16.591Z,80.95
2019-04-14T19:01:05.200Z,81.21
2019-04-14T19:02:45.380Z,81.41
2019-04-14T19:04:25.158Z,81.33
2019-04-14T19:06:11.384Z,81.28
2019-04-14T19:07:52.910Z,80.95
2019-04-14T19:09:33.117Z,81.41
2019-04-14T19:11:16.762Z,81.67
2019-04-14T19:13:16.877Z,81.54
2019-04-14T19:14:59.793Z,81.80
2019-04-14T19:16:50.741Z,81.46
2019-04-14T19:18:49.871Z,81.65
2019-04-14T19:20:51.824Z,81.22
2019-04-14T19:25:06.742Z,81.38
2019-04-14T19:25:23.882Z,81.58
2019-04-14T19:27:03.477Z,81.77
2019-04-14T19:28:42.845Z,82.07
2019-04-14T19:30:24.402Z,81.41
2019-04-14T19:32:03.015Z,81.54
2019-04-14T19:33:43.317Z,81.09
2019-04-14T19:35:26.809Z,81.63
2019-04-14T19:37:07.311Z,81.33
2019-04-14T19:38:46.230Z,81.53
2019-04-14T19:40:24.652Z,81.75
2019-04-14T19:42:05.450Z,81.78
2019-04-14T19:43:47.196Z,81.75
2019-04-14T19:45:29.434Z,81.80
2019-04-14T19:47:08.734Z,81.42
2019-04-14T19:48:46.655Z,80.99
2019-04-14T19:50:25.992Z,81.06
2019-04-14T19:52:04.225Z,81.39
2019-04-14T19:53:45.651Z,81.61
2019-04-14T19:55:26.950Z,81.74
2019-04-14T19:57:06.296Z,81.81
2019-04-14T19:58:46.474Z,82.07
2019-04-14T20:00:27.892Z,81.68
2019-04-14T20:02:06.645Z,81.76
2019-04-14T20:03:46.876Z,82.06
2019-04-14T20:05:26.075Z,82.03
2019-04-14T20:07:05.909Z,81.75
2019-04-14T20:08:45.100Z,81.57
2019-04-14T20:10:25.486Z,81.89
2019-04-14T20:12:05.924Z,81.91
2019-04-14T20:13:53.444Z,80.64
2019-04-14T20:15:37.106Z,80.19
2019-04-14T20:17:29.487Z,81.11
2019-04-14T20:19:11.056Z,81.30
2019-04-14T20:21:16.466Z,81.00
2019-04-14T20:23:22.512Z,81.68
2019-04-14T20:25:09.910Z,81.43
2019-04-14T20:27:12.681Z,81.47
2019-04-14T20:28:57.461Z,81.57
2019-04-14T20:30:45.501Z,81.87
2019-04-14T20:32:32.459Z,81.58
2019-04-14T20:34:12.155Z,82.13
2019-04-14T20:35:52.223Z,81.92
2019-04-14T20:37:32.858Z,81.23
2019-04-14T20:39:16.652Z,81.00
2019-04-14T20:40:55.344Z,80.67
2019-04-14T20:42:36.002Z,81.58
2019-04-14T20:44:15.572Z,81.77
2019-04-14T20:45:55.031Z,81.90
2019-04-14T20:47:33.956Z,81.76
2019-04-14T20:49:12.078Z,82.06
2019-04-14T20:50:53.381Z,81.58
2019-04-14T20:52:33.131Z,81.63
2019-04-14T20:54:13.362Z,82.36
2019-04-14T20:55:52.517Z,82.69
2019-04-14T20:57:32.558Z,82.22
2019-04-14T20:59:12.429Z,82.75
2019-04-14T21:00:52.541Z,82.91
2019-04-14T21:02:33.650Z,82.56
2019-04-14T21:04:31.311Z,82.09
2019-04-14T21:06:15.135Z,83.08
2019-04-14T21:07:55.109Z,82.98
2019-04-14T21:09:38.593Z,83.34
2019-04-14T21:11:25.866Z,84.51
2019-04-14T21:13:08.579Z,84.33
2019-04-14T21:15:10.422Z,85.15
2019-04-14T21:16:53.953Z,85.41
2019-04-14T21:18:39.148Z,85.17
2019-04-14T21:20:24.867Z,85.02
2019-04-14T21:22:25.913Z,84.57
2019-04-14T21:24:07.267Z,85.75
2019-04-14T21:26:00.382Z,85.78
2019-04-14T21:27:42.224Z,85.90
2019-04-14T21:29:22.468Z,86.36
2019-04-14T21:31:06.936Z,85.30
2019-04-14T21:32:54.805Z,85.48
2019-04-14T21:34:38.917Z,86.28
2019-04-14T21:36:23.166Z,86.17
2019-04-14T21:38:04.024Z,86.06
2019-04-14T21:39:55.373Z,86.19
2019-04-14T21:41:36.717Z,86.90
2019-04-14T21:43:19.504Z,86.89
2019-04-14T21:44:59.870Z,86.82
2019-04-14T21:46:37.446Z,86.83
2019-04-14T21:48:18.581Z,87.11
2019-04-14T21:50:08.852Z,87.53
2019-04-14T21:51:57.139Z,87.39
2019-04-14T21:53:39.255Z,87.58
2019-04-14T21:55:22.006Z,87.82
2019-04-14T21:57:15.313Z,87.41
2019-04-14T21:59:03.845Z,88.32
2019-04-14T22:01:01.955Z,88.40
2019-04-14T22:02:59.702Z,88.51
2019-04-14T22:04:41.221Z,88.82
2019-04-14T22:06:23.897Z,89.07
2019-04-14T22:08:05.011Z,88.66
2019-04-14T22:09:45.269Z,89.00
2019-04-14T22:11:29.838Z,88.46
2019-04-14T22:13:09.354Z,88.53
2019-04-14T22:14:47.902Z,89.19
2019-04-14T22:16:28.846Z,89.46
2019-04-14T22:18:13.036Z,89.76
2019-04-14T22:19:52.704Z,89.66
2019-04-14T22:21:31.204Z,89.29
2019-04-14T22:23:13.395Z,89.04
2019-04-14T22:24:52.822Z,89.54
2019-04-14T22:26:33.010Z,89.88
2019-04-14T22:28:15.377Z,89.04
2019-04-14T22:29:56.499Z,89.31
2019-04-14T22:31:36.168Z,89.38
2019-04-14T22:33:19.370Z,89.40
2019-04-14T22:34:58.833Z,89.50
2019-04-14T22:36:39.120Z,88.76
2019-04-14T22:38:18.386Z,88.93
2019-04-14T22:39:58.249Z,89.67
2019-04-14T22:41:37.562Z,89.25
2019-04-14T22:43:18.655Z,88.89
2019-04-14T22:44:57.953Z,89.32
2019-04-14T22:46:37.246Z,89.59
2019-04-14T22:48:19.402Z,89.42
2019-04-14T22:49:59.398Z,89.34
2019-04-14T22:51:39.248Z,89.51
2019-04-14T22:53:19.293Z,89.59
2019-04-14T22:54:59.189Z,89.60
2019-04-14T22:56:39.715Z,89.35
2019-04-14T22:58:20.192Z,89.09
2019-04-14T22:59:59.545Z,88.83
2019-04-14T23:01:40.737Z,89.02
2019-04-14T23:03:21.716Z,88.42
2019-04-14T23:05:09.420Z,88.84
2019-04-14T23:07:07.612Z,88.38
2019-04-14T23:08:52.533Z,89.03
2019-04-14T23:10:33.900Z,89.67
2019-04-14T23:12:18.763Z,90.05
2019-04-14T23:14:00.638Z,90.09
2019-04-14T23:15:40.824Z,90.03
2019-04-14T23:17:29.595Z,90.33
2019-04-14T23:19:11.081Z,90.21
2019-04-14T23:21:08.348Z,89.84
2019-04-14T23:23:01.584Z,89.88
2019-04-14T23:24:40.871Z,89.92
2019-04-14T23:26:21.861Z,90.07
2019-04-14T23:28:01.345Z,90.15
2019-04-14T23:29:41.486Z,89.85
2019-04-14T23:31:21.438Z,89.67
2019-04-14T23:32:59.833Z,89.65
2019-04-14T23:34:39.710Z,89.37
2019-04-14T23:36:19.029Z,89.30
2019-04-14T23:37:59.268Z,89.86
2019-04-14T23:39:39.385Z,90.22
2019-04-14T23:41:19.658Z,90.63
2019-04-14T23:42:59.007Z,90.87
2019-04-14T23:44:38.731Z,90.61
2019-04-14T23:46:18.016Z,90.04
2019-04-14T23:47:57.763Z,90.01
2019-04-14T23:49:35.969Z,90.17
2019-04-14T23:51:17.155Z,90.26
2019-04-14T23:52:58.089Z,89.48
2019-04-14T23:54:39.828Z,89.43
2019-04-14T23:56:19.167Z,89.67
2019-04-14T23:57:59.722Z,89.98
2019-04-14T23:59:38.400Z,90.23
